createdAt,value
2017-07-15T00:00:23.703Z,94297.03
2017-07-15T00:02:51.455Z,94292.25
2017-07-15T00:05:19.143Z,94282.41
2017-07-15T00:07:46.905Z,94273.95
2017-07-15T00:10:14.623Z,94273.59
2017-07-15T00:12:42.377Z,94267.72
2017-07-15T00:15:10.057Z,94270.83
2017-07-15T00:17:37.804Z,94279.45
2017-07-15T00:20:06.251Z,94274.93
2017-07-15T00:22:33.970Z,94271.77
2017-07-15T00:25:01.776Z,94264.23
2017-07-15T00:27:29.513Z,94271.83
2017-07-15T00:29:57.283Z,94277.47
2017-07-15T00:32:25.021Z,94272.36
2017-07-15T00:34:52.709Z,94272.17
2017-07-15T00:37:20.544Z,94276.14
2017-07-15T00:39:48.246Z,94273.59
2017-07-15T00:42:15.947Z,94277.56
2017-07-15T00:44:43.709Z,94281.52
2017-07-15T00:47:11.413Z,94286.52
2017-07-15T00:49:39.176Z,94273.39
2017-07-15T00:52:06.862Z,94267.88
2017-07-15T00:54:34.656Z,94265.11
2017-07-15T00:57:02.368Z,94271.50
2017-07-15T00:59:30.077Z,94272.80
2017-07-15T01:01:57.808Z,94280.45
2017-07-15T01:04:25.539Z,94272.04
2017-07-15T01:06:53.315Z,94269.08
2017-07-15T01:09:21.034Z,94272.76
2017-07-15T01:11:48.717Z,94274.06
2017-07-15T01:14:16.514Z,94269.15
2017-07-15T01:16:44.281Z,94278.78
2017-07-15T01:19:11.977Z,94277.31
2017-07-15T01:21:39.680Z,94282.05
2017-07-15T01:24:07.539Z,94282.72
2017-07-15T01:26:35.254Z,94283.68
2017-07-15T01:29:02.972Z,94274.58
2017-07-15T01:31:30.788Z,94268.83
2017-07-15T01:33:58.595Z,94269.16
2017-07-15T01:36:26.376Z,94272.13
2017-07-15T01:38:54.085Z,94267.52
2017-07-15T01:41:21.828Z,94264.95
2017-07-15T01:43:49.637Z,94275.63
2017-07-15T01:46:17.332Z,94278.41
2017-07-15T01:48:45.069Z,94272.91
2017-07-15T01:51:12.782Z,94283.81
2017-07-15T01:53:40.606Z,94284.95
2017-07-15T01:56:08.419Z,94270.98
2017-07-15T01:58:36.200Z,94256.30
2017-07-15T02:01:04.065Z,94254.20
2017-07-15T02:03:31.774Z,94263.48
2017-07-15T02:05:59.472Z,94254.13
2017-07-15T02:08:27.257Z,94259.89
2017-07-15T02:10:55.587Z,94254.04
2017-07-15T02:13:23.391Z,94259.08
2017-07-15T02:15:51.127Z,94251.84
2017-07-15T02:18:18.890Z,94261.05
2017-07-15T02:20:47.275Z,94255.97
2017-07-15T02:23:15.089Z,94261.37
2017-07-15T02:25:43.862Z,94254.05
2017-07-15T02:28:11.623Z,94258.80
2017-07-15T02:30:39.376Z,94258.91
2017-07-15T02:33:07.082Z,94259.16
2017-07-15T02:35:34.837Z,94260.34
2017-07-15T02:38:02.568Z,94266.20
2017-07-15T02:40:30.285Z,94265.98
2017-07-15T02:42:58.031Z,94261.48
2017-07-15T02:45:25.759Z,94267.56
2017-07-15T02:47:53.567Z,94258.09
2017-07-15T02:50:21.258Z,94250.88
2017-07-15T02:52:49.482Z,94249.06
2017-07-15T02:55:17.199Z,94256.36
2017-07-15T02:57:44.938Z,94266.43
2017-07-15T03:00:12.695Z,94281.81
2017-07-15T03:02:40.452Z,94292.31
2017-07-15T03:05:08.163Z,94305.75
2017-07-15T03:07:35.902Z,94308.75
2017-07-15T03:10:03.669Z,94310.36
2017-07-15T03:12:31.619Z,94321.20
2017-07-15T03:14:59.322Z,94331.84
2017-07-15T03:17:27.200Z,94330.03
2017-07-15T03:19:54.993Z,94331.39
2017-07-15T03:22:22.769Z,94337.80
2017-07-15T03:24:50.528Z,94342.50
2017-07-15T03:27:29.980Z,94352.55
2017-07-15T03:29:57.697Z,94352.45
2017-07-15T03:32:25.499Z,94355.86
2017-07-15T03:34:53.211Z,94351.72
2017-07-15T03:37:20.953Z,94335.20
2017-07-15T03:39:48.755Z,94330.34
2017-07-15T03:42:16.450Z,94320.11
2017-07-15T03:44:44.217Z,94311.94
2017-07-15T03:47:11.972Z,94306.92
2017-07-15T03:49:39.954Z,94305.96
2017-07-15T03:52:07.685Z,94304.14
2017-07-15T03:54:35.380Z,94305.56
2017-07-15T03:57:03.136Z,94302.67
2017-07-15T03:59:30.815Z,94315.48
2017-07-15T04:01:58.599Z,94316.28
2017-07-15T04:04:26.377Z,94325.32
2017-07-15T04:06:54.244Z,94326.52
2017-07-15T04:09:22.000Z,94330.73
2017-07-15T04:11:49.805Z,94330.39
2017-07-15T04:14:17.531Z,94330.16
2017-07-15T04:16:45.305Z,94329.69
2017-07-15T04:19:14.183Z,94322.17
2017-07-15T04:21:41.953Z,94319.56
2017-07-15T04:24:09.748Z,94330.13
2017-07-15T04:26:37.527Z,94328.29
2017-07-15T04:29:05.239Z,94334.42
2017-07-15T04:31:33.093Z,94341.11
2017-07-15T04:34:00.852Z,94349.16
2017-07-15T04:36:28.576Z,94355.55
2017-07-15T04:38:56.321Z,94354.94
2017-07-15T04:41:24.043Z,94350.72
2017-07-15T04:43:51.790Z,94339.92
2017-07-15T04:46:19.538Z,94334.65
2017-07-15T04:48:47.229Z,94331.70
2017-07-15T04:51:15.003Z,94347.38
2017-07-15T04:53:42.728Z,94351.13
2017-07-15T04:56:10.426Z,94336.83
2017-07-15T04:58:38.183Z,94338.08
2017-07-15T05:01:05.917Z,94342.62
2017-07-15T05:03:33.616Z,94342.13
2017-07-15T05:06:01.425Z,94343.13
2017-07-15T05:08:29.168Z,94355.27
2017-07-15T05:10:56.919Z,94351.41
2017-07-15T05:13:24.793Z,94347.91
2017-07-15T05:15:52.509Z,94362.03
2017-07-15T05:18:20.209Z,94360.78
2017-07-15T05:20:47.952Z,94366.45
2017-07-15T05:23:15.641Z,94369.17
2017-07-15T05:25:43.420Z,94368.77
2017-07-15T05:28:11.129Z,94371.88
2017-07-15T05:30:40.008Z,94378.98
2017-07-15T05:33:07.809Z,94378.64
2017-07-15T05:35:35.498Z,94376.58
2017-07-15T05:38:03.188Z,94376.92
2017-07-15T05:40:31.062Z,94381.69
2017-07-15T05:42:58.764Z,94382.55
2017-07-15T05:45:26.473Z,94392.33
2017-07-15T05:47:54.270Z,94404.16
2017-07-15T05:50:21.998Z,94399.72
2017-07-15T05:52:49.781Z,94400.23
2017-07-15T05:55:17.549Z,94407.42
2017-07-15T05:57:45.357Z,94406.98
2017-07-15T06:00:13.194Z,94408.05
2017-07-15T06:02:41.089Z,94415.30
2017-07-15T06:05:08.860Z,94403.91
2017-07-15T06:07:36.596Z,94393.31
2017-07-15T06:10:04.346Z,94385.30
2017-07-15T06:12:32.171Z,94393.24
2017-07-15T06:15:00.011Z,94387.29
2017-07-15T06:17:27.773Z,94393.75
2017-07-15T06:19:55.639Z,94395.57
2017-07-15T06:22:23.475Z,94400.84
2017-07-15T06:24:51.201Z,94413.75
2017-07-15T06:27:18.946Z,94412.50
2017-07-15T06:29:47.003Z,94423.23
2017-07-15T06:32:14.804Z,94425.16
2017-07-15T06:34:42.627Z,94422.39
2017-07-15T06:37:10.427Z,94425.97
2017-07-15T06:39:38.179Z,94430.44
2017-07-15T06:42:05.988Z,94436.17
2017-07-15T06:44:33.872Z,94440.28
2017-07-15T06:47:01.600Z,94430.69
2017-07-15T06:49:29.354Z,94449.19
2017-07-15T06:51:57.126Z,94449.58
2017-07-15T06:54:24.893Z,94460.42
2017-07-15T06:56:52.694Z,94460.20
2017-07-15T06:59:20.468Z,94463.20
2017-07-15T07:01:48.200Z,94466.14
2017-07-15T07:04:16.047Z,94469.64
2017-07-15T07:06:43.937Z,94468.52
2017-07-15T07:09:11.845Z,94466.15
2017-07-15T07:11:39.745Z,94473.52
2017-07-15T07:14:07.490Z,94471.66
2017-07-15T07:16:35.238Z,94465.37
2017-07-15T07:19:03.643Z,94462.73
2017-07-15T07:21:31.427Z,94459.55
2017-07-15T07:23:59.363Z,94463.04
2017-07-15T07:26:27.177Z,94470.68
2017-07-15T07:28:55.286Z,94472.63
2017-07-15T07:31:23.099Z,94474.37
2017-07-15T07:33:50.951Z,94479.19
2017-07-15T07:36:18.804Z,94481.53
2017-07-15T07:38:46.699Z,94489.23
2017-07-15T07:41:14.542Z,94475.19
2017-07-15T07:43:42.482Z,94477.41
2017-07-15T07:46:10.249Z,94486.14
2017-07-15T07:48:38.090Z,94488.45
2017-07-15T07:51:05.927Z,94495.71
2017-07-15T07:53:35.007Z,94500.50
2017-07-15T07:56:02.750Z,94503.94
2017-07-15T07:58:30.461Z,94493.38
2017-07-15T08:00:58.302Z,94494.34
2017-07-15T08:03:26.019Z,94485.66
2017-07-15T08:05:53.752Z,94485.48
2017-07-15T08:08:21.770Z,94483.22
2017-07-15T08:10:49.620Z,94474.04
2017-07-15T08:13:17.368Z,94466.38
2017-07-15T08:15:45.114Z,94466.49
2017-07-15T08:18:13.002Z,94461.27
2017-07-15T08:20:40.815Z,94468.24
2017-07-15T08:23:08.871Z,94467.36
2017-07-15T08:25:36.793Z,94467.75
2017-07-15T08:28:04.576Z,94463.71
2017-07-15T08:30:32.453Z,94465.91
2017-07-15T08:33:00.184Z,94474.56
2017-07-15T08:35:27.984Z,94465.13
2017-07-15T08:37:55.829Z,94464.73
2017-07-15T08:40:23.647Z,94468.69
2017-07-15T08:42:51.434Z,94479.02
2017-07-15T08:45:19.239Z,94479.50
2017-07-15T08:47:47.052Z,94470.03
2017-07-15T08:50:14.812Z,94482.60
2017-07-15T08:52:42.510Z,94485.42
2017-07-15T08:55:10.276Z,94489.35
2017-07-15T08:57:38.097Z,94503.19
2017-07-15T09:00:05.841Z,94511.17
2017-07-15T09:02:33.692Z,94510.48
2017-07-15T09:05:02.380Z,94505.70
2017-07-15T09:07:30.104Z,94504.34
2017-07-15T09:09:57.881Z,94495.14
2017-07-15T09:12:25.753Z,94491.98
2017-07-15T09:14:53.510Z,94495.33
2017-07-15T09:17:21.382Z,94494.81
2017-07-15T09:19:49.093Z,94480.47
2017-07-15T09:22:16.822Z,94479.38
2017-07-15T09:24:44.589Z,94477.87
2017-07-15T09:27:12.377Z,94475.48
2017-07-15T09:29:40.102Z,94478.34
2017-07-15T09:32:07.857Z,94474.33
2017-07-15T09:34:35.575Z,94482.08
2017-07-15T09:37:03.385Z,94481.44
2017-07-15T09:39:31.135Z,94493.56
2017-07-15T09:41:58.942Z,94512.52
2017-07-15T09:44:26.698Z,94508.19
2017-07-15T09:46:54.439Z,94518.42
2017-07-15T09:49:23.491Z,94529.57
2017-07-15T09:51:51.286Z,94538.33
2017-07-15T09:54:19.033Z,94529.17
2017-07-15T09:56:46.817Z,94526.08
2017-07-15T09:59:14.621Z,94532.00
2017-07-15T10:01:42.430Z,94539.52
2017-07-15T10:04:10.226Z,94543.42
2017-07-15T10:06:37.973Z,94542.33
2017-07-15T10:09:05.729Z,94546.60
2017-07-15T10:11:34.809Z,94544.45
2017-07-15T10:14:02.532Z,94537.91
2017-07-15T10:16:30.346Z,94541.57
2017-07-15T10:18:58.083Z,94544.68
2017-07-15T10:21:26.811Z,94535.73
2017-07-15T10:23:54.609Z,94539.24
2017-07-15T10:26:22.335Z,94540.55
2017-07-15T10:28:50.086Z,94543.19
2017-07-15T10:31:17.882Z,94543.47
2017-07-15T10:33:45.665Z,94541.84
2017-07-15T10:36:14.341Z,94547.62
2017-07-15T10:38:42.134Z,94554.50
2017-07-15T10:41:09.958Z,94541.17
2017-07-15T10:43:37.672Z,94548.11
2017-07-15T10:46:06.289Z,94562.06
2017-07-15T10:48:34.028Z,94552.20
2017-07-15T10:51:01.986Z,94556.37
2017-07-15T10:53:29.818Z,94554.00
2017-07-15T10:55:58.304Z,94561.77
2017-07-15T10:58:26.151Z,94562.62
2017-07-15T11:00:53.852Z,94562.92
2017-07-15T11:03:21.635Z,94560.56
2017-07-15T11:05:49.345Z,94569.81
2017-07-15T11:08:17.172Z,94583.23
2017-07-15T11:10:45.041Z,94571.88
2017-07-15T11:13:12.971Z,94577.95
2017-07-15T11:15:40.691Z,94578.41
2017-07-15T11:18:09.009Z,94572.74
2017-07-15T11:20:36.763Z,94574.45
2017-07-15T11:23:04.484Z,94568.85
2017-07-15T11:25:32.334Z,94582.48
2017-07-15T11:28:00.165Z,94577.59
2017-07-15T11:30:27.893Z,94576.56
2017-07-15T11:32:56.522Z,94575.22
2017-07-15T11:35:25.244Z,94583.31
2017-07-15T11:37:53.857Z,94583.72
2017-07-15T11:40:21.618Z,94587.36
2017-07-15T11:42:49.415Z,94595.41
2017-07-15T11:45:17.190Z,94600.96
2017-07-15T11:47:45.005Z,94591.10
2017-07-15T11:50:12.792Z,94591.78
2017-07-15T11:52:40.528Z,94583.55
2017-07-15T11:55:08.399Z,94582.49
2017-07-15T11:57:36.180Z,94583.09
2017-07-15T12:00:03.985Z,94572.64
2017-07-15T12:02:31.753Z,94569.71
2017-07-15T12:04:59.541Z,94573.60
2017-07-15T12:07:27.320Z,94572.25
2017-07-15T12:09:55.033Z,94566.09
2017-07-15T12:12:22.862Z,94553.49
2017-07-15T12:14:50.589Z,94552.14
2017-07-15T12:17:18.466Z,94563.58
2017-07-15T12:19:46.238Z,94564.54
2017-07-15T12:22:14.059Z,94566.00
2017-07-15T12:24:41.863Z,94566.15
2017-07-15T12:27:09.721Z,94571.12
2017-07-15T12:29:37.524Z,94572.26
2017-07-15T12:32:05.231Z,94584.73
2017-07-15T12:34:33.016Z,94577.41
2017-07-15T12:37:00.831Z,94581.45
2017-07-15T12:39:28.642Z,94584.07
2017-07-15T12:41:56.401Z,94575.34
2017-07-15T12:44:24.120Z,94573.05
2017-07-15T12:46:51.923Z,94576.74
2017-07-15T12:49:19.729Z,94581.74
2017-07-15T12:51:47.458Z,94578.23
2017-07-15T12:54:15.243Z,94580.25
2017-07-15T12:56:43.293Z,94571.78
2017-07-15T12:59:11.078Z,94584.27
2017-07-15T13:01:38.876Z,94586.56
2017-07-15T13:04:06.608Z,94593.59
2017-07-15T13:06:34.369Z,94587.95
2017-07-15T13:09:02.195Z,94588.80
2017-07-15T13:11:30.000Z,94596.87
2017-07-15T13:13:57.728Z,94593.27
2017-07-15T13:16:25.502Z,94593.84
2017-07-15T13:18:53.243Z,94586.68
2017-07-15T13:21:21.056Z,94591.69
2017-07-15T13:23:48.822Z,94579.34
2017-07-15T13:26:16.648Z,94587.83
2017-07-15T13:28:44.461Z,94598.59
2017-07-15T13:31:12.233Z,94597.13
2017-07-15T13:33:39.994Z,94599.23
2017-07-15T13:36:07.777Z,94604.75
2017-07-15T13:38:35.570Z,94599.68
2017-07-15T13:41:03.282Z,94611.08
2017-07-15T13:43:31.055Z,94606.37
2017-07-15T13:45:58.860Z,94603.55
2017-07-15T13:48:26.667Z,94601.64
2017-07-15T13:50:54.379Z,94601.93
2017-07-15T13:53:22.692Z,94603.84
2017-07-15T13:55:50.460Z,94595.28
2017-07-15T13:58:18.178Z,94607.98
2017-07-15T14:00:45.957Z,94610.42
2017-07-15T14:03:13.807Z,94609.95
2017-07-15T14:05:41.546Z,94603.67
2017-07-15T14:08:09.387Z,94610.13
2017-07-15T14:10:37.199Z,94612.53
2017-07-15T14:13:04.926Z,94612.78
2017-07-15T14:15:32.643Z,94618.93
2017-07-15T14:18:00.422Z,94614.58
2017-07-15T14:20:28.242Z,94617.48
2017-07-15T14:22:56.039Z,94623.12
2017-07-15T14:25:23.878Z,94627.91
2017-07-15T14:27:51.634Z,94622.45
2017-07-15T14:30:19.442Z,94627.31
2017-07-15T14:32:47.168Z,94635.02
2017-07-15T14:35:15.127Z,94631.38
2017-07-15T14:37:42.887Z,94634.98
2017-07-15T14:40:10.649Z,94626.89
2017-07-15T14:42:38.450Z,94635.84
2017-07-15T14:45:06.223Z,94641.66
2017-07-15T14:47:34.018Z,94634.73
2017-07-15T14:50:01.776Z,94635.97
2017-07-15T14:52:29.495Z,94643.08
2017-07-15T14:54:57.918Z,94642.11
2017-07-15T14:57:25.626Z,94640.74
2017-07-15T14:59:53.380Z,94643.92
2017-07-15T15:02:21.115Z,94644.14
2017-07-15T15:04:49.920Z,94645.53
2017-07-15T15:07:17.684Z,94650.34
2017-07-15T15:09:45.474Z,94639.02
2017-07-15T15:12:13.308Z,94642.69
2017-07-15T15:14:41.065Z,94646.36
2017-07-15T15:17:08.792Z,94645.28
2017-07-15T15:19:36.561Z,94646.38
2017-07-15T15:22:04.257Z,94649.98
2017-07-15T15:24:32.050Z,94644.24
2017-07-15T15:26:59.791Z,94638.23
2017-07-15T15:29:27.531Z,94644.31
2017-07-15T15:31:55.332Z,94640.98
2017-07-15T15:34:23.079Z,94639.28
2017-07-15T15:36:50.915Z,94645.22
2017-07-15T15:39:18.783Z,94642.45
2017-07-15T15:41:46.641Z,94637.84
2017-07-15T15:44:15.368Z,94642.34
2017-07-15T15:46:43.076Z,94641.47
2017-07-15T15:49:10.809Z,94640.56
2017-07-15T15:51:38.648Z,94645.03
2017-07-15T15:54:06.406Z,94643.69
2017-07-15T15:56:34.193Z,94641.47
2017-07-15T15:59:01.893Z,94653.17
2017-07-15T16:01:29.697Z,94654.69
2017-07-15T16:03:57.391Z,94651.48
2017-07-15T16:06:25.172Z,94649.65
2017-07-15T16:08:52.885Z,94659.12
2017-07-15T16:11:20.636Z,94658.03
2017-07-15T16:13:48.611Z,94661.13
2017-07-15T16:16:16.362Z,94656.12
2017-07-15T16:18:44.192Z,94655.50
2017-07-15T16:21:11.968Z,94663.23
2017-07-15T16:23:39.723Z,94656.12
2017-07-15T16:26:07.463Z,94657.98
2017-07-15T16:28:35.233Z,94659.94
2017-07-15T16:31:03.025Z,94660.52
2017-07-15T16:33:30.777Z,94661.27
2017-07-15T16:35:58.593Z,94668.25
2017-07-15T16:38:26.376Z,94667.41
2017-07-15T16:40:55.096Z,94667.56
2017-07-15T16:43:22.898Z,94673.00
2017-07-15T16:45:50.735Z,94680.26
2017-07-15T16:48:18.512Z,94670.31
2017-07-15T16:50:46.289Z,94678.70
2017-07-15T16:53:14.096Z,94684.20
2017-07-15T16:55:41.944Z,94674.55
2017-07-15T16:58:09.649Z,94674.38
2017-07-15T17:00:37.439Z,94678.59
2017-07-15T17:03:05.167Z,94679.15
2017-07-15T17:05:32.860Z,94678.04
2017-07-15T17:08:00.637Z,94683.00
2017-07-15T17:10:28.389Z,94690.55
2017-07-15T17:12:56.193Z,94695.28
2017-07-15T17:15:23.953Z,94695.17
2017-07-15T17:17:51.790Z,94699.90
2017-07-15T17:20:19.658Z,94689.08
2017-07-15T17:22:47.425Z,94693.56
2017-07-15T17:25:15.215Z,94694.56
2017-07-15T17:27:42.947Z,94702.13
2017-07-15T17:30:11.896Z,94707.84
2017-07-15T17:32:39.719Z,94710.23
2017-07-15T17:35:07.516Z,94708.44
2017-07-15T17:37:35.286Z,94709.73
2017-07-15T17:40:02.991Z,94706.48
2017-07-15T17:42:30.780Z,94702.19
2017-07-15T17:44:58.538Z,94709.34
2017-07-15T17:47:26.394Z,94709.25
2017-07-15T17:49:54.153Z,94710.92
2017-07-15T17:52:21.885Z,94722.22
2017-07-15T17:54:49.736Z,94719.27
2017-07-15T17:57:17.488Z,94716.91
2017-07-15T17:59:45.317Z,94708.53
2017-07-15T18:02:13.048Z,94712.59
2017-07-15T18:04:40.755Z,94710.89
2017-07-15T18:07:08.527Z,94716.06
2017-07-15T18:09:36.431Z,94718.09
2017-07-15T18:12:04.195Z,94717.63
2017-07-15T18:14:32.012Z,94723.31
2017-07-15T18:16:59.841Z,94723.69
2017-07-15T18:19:27.594Z,94726.45
2017-07-15T18:21:55.405Z,94729.77
2017-07-15T18:24:23.177Z,94728.91
2017-07-15T18:26:50.879Z,94731.48
2017-07-15T18:29:18.605Z,94730.38
2017-07-15T18:31:46.438Z,94735.02
2017-07-15T18:34:14.194Z,94739.34
2017-07-15T18:36:41.997Z,94736.39
2017-07-15T18:39:09.737Z,94744.94
2017-07-15T18:41:37.539Z,94742.37
2017-07-15T18:44:05.320Z,94740.95
2017-07-15T18:46:33.053Z,94746.77
2017-07-15T18:49:00.849Z,94756.05
2017-07-15T18:51:28.622Z,94751.05
2017-07-15T18:53:56.529Z,94755.70
2017-07-15T18:56:25.194Z,94760.03
2017-07-15T18:58:52.977Z,94760.05
2017-07-15T19:01:20.961Z,94771.45
2017-07-15T19:03:48.679Z,94768.42
2017-07-15T19:06:16.437Z,94768.81
2017-07-15T19:08:45.031Z,94775.56
2017-07-15T19:11:13.049Z,94777.72
2017-07-15T19:13:40.940Z,94788.44
2017-07-15T19:16:08.702Z,94786.77
2017-07-15T19:18:36.540Z,94798.38
2017-07-15T19:21:04.301Z,94798.81
2017-07-15T19:23:32.135Z,94800.19
2017-07-15T19:25:59.924Z,94797.73
2017-07-15T19:28:27.645Z,94808.92
2017-07-15T19:30:55.397Z,94808.95
2017-07-15T19:33:23.882Z,94808.73
2017-07-15T19:35:51.603Z,94811.48
2017-07-15T19:38:19.414Z,94811.74
2017-07-15T19:40:47.237Z,94815.59
2017-07-15T19:43:16.123Z,94811.64
2017-07-15T19:45:44.016Z,94819.53
2017-07-15T19:48:11.847Z,94825.42
2017-07-15T19:50:39.571Z,94823.41
2017-07-15T19:53:07.375Z,94833.23
2017-07-15T19:55:35.614Z,94839.67
2017-07-15T19:58:03.418Z,94838.81
2017-07-15T20:00:31.174Z,94842.27
2017-07-15T20:02:59.022Z,94839.13
2017-07-15T20:05:26.774Z,94837.91
2017-07-15T20:07:56.313Z,94837.98
2017-07-15T20:10:24.123Z,94839.90
2017-07-15T20:12:51.986Z,94840.86
2017-07-15T20:15:19.715Z,94841.06
2017-07-15T20:17:47.445Z,94843.86
2017-07-15T20:20:15.218Z,94852.01
2017-07-15T20:22:43.318Z,94848.23
2017-07-15T20:25:11.047Z,94852.22
2017-07-15T20:27:38.843Z,94852.78
2017-07-15T20:30:06.634Z,94849.42
2017-07-15T20:32:34.416Z,94852.62
2017-07-15T20:35:02.272Z,94853.47
2017-07-15T20:37:30.661Z,94857.79
2017-07-15T20:39:58.443Z,94858.48
2017-07-15T20:42:27.149Z,94860.55
2017-07-15T20:44:54.905Z,94857.12
2017-07-15T20:47:22.632Z,94861.83
2017-07-15T20:49:51.245Z,94863.85
2017-07-15T20:52:24.403Z,94864.30
2017-07-15T20:54:52.191Z,94861.92
2017-07-15T20:57:19.961Z,94857.89
2017-07-15T20:59:47.805Z,94862.36
2017-07-15T21:02:15.600Z,94862.59
2017-07-15T21:04:43.378Z,94860.95
2017-07-15T21:07:11.221Z,94859.06
2017-07-15T21:09:39.255Z,94862.05
2017-07-15T21:12:07.014Z,94862.15
2017-07-15T21:14:34.839Z,94864.44
2017-07-15T21:17:02.613Z,94867.11
2017-07-15T21:19:30.454Z,94873.83
2017-07-15T21:21:58.188Z,94879.45
2017-07-15T21:24:25.943Z,94880.80
2017-07-15T21:26:53.783Z,94879.98
2017-07-15T21:29:21.531Z,94882.59
2017-07-15T21:31:49.241Z,94881.16
2017-07-15T21:34:17.047Z,94884.48
2017-07-15T21:36:44.761Z,94886.21
2017-07-15T21:39:12.558Z,94880.34
2017-07-15T21:41:40.360Z,94882.93
2017-07-15T21:44:08.087Z,94886.13
2017-07-15T21:46:35.823Z,94882.70
2017-07-15T21:49:03.587Z,94887.55
2017-07-15T21:51:31.444Z,94894.15
2017-07-15T21:53:59.234Z,94891.11
2017-07-15T21:56:26.941Z,94891.33
2017-07-15T21:58:54.764Z,94887.55
2017-07-15T22:01:22.552Z,94898.16
2017-07-15T22:03:50.247Z,94893.83
2017-07-15T22:06:18.011Z,94888.20
2017-07-15T22:08:45.763Z,94879.59
2017-07-15T22:17:09.033Z,94884.98
2017-07-15T22:19:36.785Z,94890.50
2017-07-15T22:22:04.618Z,94883.69
2017-07-15T22:24:32.373Z,94884.06
2017-07-15T22:27:00.095Z,94878.07
2017-07-15T22:29:27.900Z,94883.10
2017-07-15T22:31:55.655Z,94880.59
2017-07-15T22:34:23.395Z,94884.06
2017-07-15T22:36:51.140Z,94892.09
2017-07-15T22:39:18.932Z,94889.89
2017-07-15T22:41:46.756Z,94896.30
2017-07-15T22:44:14.494Z,94896.70
2017-07-15T22:46:42.248Z,94898.16
2017-07-15T22:49:10.038Z,94901.50
2017-07-15T22:51:37.841Z,94905.45
2017-07-15T22:54:05.532Z,94904.98
2017-07-15T22:56:33.398Z,94904.48
2017-07-15T22:59:02.094Z,94905.30
2017-07-15T23:01:29.795Z,94900.38
2017-07-15T23:03:57.816Z,94909.48
2017-07-15T23:06:25.571Z,94910.06
2017-07-15T23:08:53.290Z,94908.98
2017-07-15T23:11:21.079Z,94910.96
2017-07-15T23:13:48.820Z,94909.48
2017-07-15T23:16:16.581Z,94913.39
2017-07-15T23:18:44.385Z,94904.52
2017-07-15T23:21:12.218Z,94912.49
2017-07-15T23:23:39.965Z,94914.39
2017-07-15T23:26:07.744Z,94912.58
2017-07-15T23:28:35.518Z,94909.84
2017-07-15T23:31:03.369Z,94913.78
2017-07-15T23:33:31.142Z,94913.52
2017-07-15T23:35:58.864Z,94913.33
2017-07-15T23:38:26.746Z,94918.08
2017-07-15T23:40:54.510Z,94909.02
2017-07-15T23:43:22.263Z,94911.14
2017-07-15T23:45:50.055Z,94903.30
2017-07-15T23:48:17.809Z,94903.53
2017-07-15T23:50:45.574Z,94904.67
2017-07-15T23:53:13.310Z,94898.40
2017-07-15T23:55:41.146Z,94901.92
2017-07-15T23:58:08.905Z,94905.00
